Arife — H8XS — position and weather

sailwx.info

Track history (hours):
 
Tides and Currents Weather Stations Pressure Air Temp Water Temp Dewpoint Dewpoint Depression Visibility Wind Speed Wind Dir Waves Ship Positions

Arife

Last reported at 2018-Feb-18 05:31 UTC. Time now 2018-Feb-18 05:33 UTC.
Position N 38°19' W 010°05'.

Length 101 m; draft 5.3 m.

Type: Cargo ship. MMSI: 371529000.

Date/timePositionNaut miles runAvg speedWind from/ knotsBaromVisibWave heightAir tempDewpointWater temp
2018-Feb-18 05:31N 38°19' W 010°05'611.9
2018-Feb-18 05:00N 38°25' W 010°07'363 8.0
2018-Feb-16 07:48N 43°46' W 006°22'5 8.8
2018-Feb-16 07:11N 43°47' W 006°15'2 8.9
2018-Feb-16 07:00N 43°47' W 006°12'5 9.1
2018-Feb-16 06:30N 43°47' W 006°06'4 9.0
2018-Feb-16 06:00N 43°47' W 006°00'5 8.9
2018-Feb-16 05:30N 43°47' W 005°54'4 8.8
2018-Feb-16 05:00N 43°46' W 005°48'5 8.9
2018-Feb-16 04:25N 43°45' W 005°41'4 8.7
2018-Feb-16 04:00N 43°45' W 005°36'6 8.7
2018-Feb-16 03:21N 43°44' W 005°28'5 8.9
2018-Feb-16 02:46N 43°43' W 005°21'69 5.0
2018-Feb-15 13:02N 43°34' W 003°46'374 9.0
2018-Feb-13 19:32N 49°48' W 003°26'1 9.8
2018-Feb-13 19:28N 49°48' W 003°25'4 9.4
2018-Feb-13 19:00N 49°51' W 003°19'7 8.0
2018-Feb-13 18:07N 49°54' W 003°10'1 7.5
2018-Feb-13 18:00N 49°54' W 003°08'4 7.3
2018-Feb-13 17:26N 49°55' W 003°02'3 6.9
2018-Feb-13 17:00N 49°57' W 002°58'4 6.7
2018-Feb-13 16:26N 49°58' W 002°53'3 7.5
2018-Feb-13 15:59N 49°59' W 002°48'5 7.9
2018-Feb-13 15:21N 50°00' W 002°40'3 8.6
2018-Feb-13 14:57N 50°01' W 002°35'6 9.2
2018-Feb-13 14:21N 50°02' W 002°27'410.0
2018-Feb-13 13:57N 50°02' W 002°20'510.5
2018-Feb-13 13:29N 50°02' W 002°13'611.7
2018-Feb-13 13:00N 50°00' W 002°04'612.5
2018-Feb-13 12:30N 49°59' W 001°55'713.0
2018-Feb-13 12:00N 49°57' W 001°45'714.0
2018-Feb-13 11:30N 49°55' W 001°35'714.2
2018-Feb-13 11:00N 49°53' W 001°24'714.1
2018-Feb-13 10:30N 49°51' W 001°14'713.4
2018-Feb-13 10:00N 49°48' W 001°04'713.6
2018-Feb-13 09:30N 49°42' W 000°59'713.3
2018-Feb-13 08:58N 49°36' W 000°53'612.8
2018-Feb-13 08:30N 49°31' W 000°49'1 0.1
2018-Feb-12 21:24N 49°30' W 000°48'0 0.0
2018-Feb-12 21:00N 49°30' W 000°48'0 0.0
2018-Feb-12 20:30N 49°30' W 000°48'0 0.0
2018-Feb-12 20:00N 49°30' W 000°48'0 0.1
2018-Feb-12 19:30N 49°30' W 000°48'0 0.1
2018-Feb-12 18:57N 49°30' W 000°48'0 0.0
2018-Feb-12 18:30N 49°30' W 000°48'0 0.0
2018-Feb-12 18:00N 49°30' W 000°48'0 0.0
2018-Feb-12 17:30N 49°30' W 000°48'0 0.0
2018-Feb-12 16:57N 49°30' W 000°48'0 0.0
2018-Feb-12 16:21N 49°30' W 000°48'0 0.0
2018-Feb-12 16:00N 49°30' W 000°48'0 0.1
2018-Feb-12 15:15N 49°30' W 000°48'0 0.2
2018-Feb-12 15:00N 49°30' W 000°48'0 0.1
2018-Feb-12 14:30N 49°30' W 000°48'0 0.3
2018-Feb-12 13:51N 49°30' W 000°48'0 0.0
2018-Feb-12 12:30N 49°30' W 000°48'0 0.0
2018-Feb-12 12:00N 49°30' W 000°48'0 0.0
2018-Feb-12 11:29N 49°30' W 000°48'1 1.3
2018-Feb-12 10:59N 49°31' W 000°49'1 2.9
2018-Feb-12 10:29N 49°32' W 000°48'5 8.7
2018-Feb-12 09:57N 49°37' W 000°48'511.2
2018-Feb-12 09:30N 49°42' W 000°46'611.3
2018-Feb-12 09:00N 49°47' W 000°45'610.6
2018-Feb-12 08:27N 49°53' W 000°44'27 7.8
2018-Feb-12 05:02N 50°14' W 000°18'0 7.7
2018-Feb-12 05:00N 50°15' W 000°18'4 8.7
2018-Feb-12 04:30N 50°18' W 000°14'5 9.3
2018-Feb-12 04:00N 50°22' W 000°10'5 9.5
2018-Feb-12 03:30N 50°25' W 000°05'510.1
2018-Feb-12 03:00N 50°29' E 000°00'510.1
2018-Feb-12 02:30N 50°31' E 000°08'610.3
2018-Feb-12 01:58N 50°33' E 000°16'510.5
2018-Feb-12 01:30N 50°34' E 000°24'510.5
2018-Feb-12 01:00N 50°35' E 000°32'510.4
2018-Feb-12 00:30N 50°37' E 000°39'611.7
2018-Feb-11 23:59N 50°41' E 000°47'1811.2
2018-Feb-11 22:25N 50°51' E 001°09'510.7
2018-Feb-11 22:00N 50°54' E 001°15'510.7
2018-Feb-11 21:30N 50°57' E 001°21'510.7
2018-Feb-11 21:00N 51°01' E 001°27'611.0
2018-Feb-11 20:30N 51°05' E 001°33'611.2
2018-Feb-11 20:00N 51°09' E 001°39'611.6
2018-Feb-11 19:30N 51°13' E 001°46'611.9
2018-Feb-11 19:00N 51°18' E 001°51'612.6
2018-Feb-11 18:31N 51°23' E 001°56'713.3
2018-Feb-11 18:00N 51°29' E 002°02'712.6
2018-Feb-11 17:28N 51°34' E 002°09'149 7.1
2018-Feb-10 20:30N 53°30' E 004°44'5 9.5
2018-Feb-10 20:00N 53°32' E 004°52'510.8
2018-Feb-10 19:30N 53°34' E 005°00'611.4
2018-Feb-10 19:00N 53°36' E 005°09'711.5
2018-Feb-10 18:25N 53°39' E 005°19'41 9.9
2018-Feb-10 14:15N 53°37' E 006°29'311.1
2018-Feb-10 14:00N 53°37' E 006°33'711.7
2018-Feb-10 13:22N 53°32' E 006°43'412.0
2018-Feb-10 13:00N 53°30' E 006°49'612.3
2018-Feb-10 12:30N 53°25' E 006°56'612.6
2018-Feb-10 12:00N 53°19' E 007°01'612.4
2018-Feb-10 11:30N 53°20' E 007°11'0 1.0
2018-Feb-10 10:59N 53°20' E 007°12'0 0.0
2018-Feb-10 10:23N 53°20' E 007°12'0 0.0
2018-Feb-10 09:59N 53°20' E 007°12'0 0.0
2018-Feb-10 09:29N 53°20' E 007°12'0 0.0
2018-Feb-10 09:00N 53°20' E 007°12'0 0.0
2018-Feb-10 08:30N 53°20' E 007°12'0 0.0
2018-Feb-10 08:00N 53°20' E 007°12'0 0.0
2018-Feb-10 07:30N 53°20' E 007°12'0 0.2
2018-Feb-10 07:00N 53°20' E 007°12'0 0.8
2018-Feb-10 06:30N 53°20' E 007°11'3 5.5
2018-Feb-10 06:00N 53°20' E 007°06'4 9.1
2018-Feb-10 05:30N 53°21' E 006°59'712.9
2018-Feb-10 05:00N 53°27' E 006°54'613.2
2018-Feb-10 04:30N 53°31' E 006°46'713.2
2018-Feb-10 03:59N 53°35' E 006°36'612.9
2018-Feb-10 03:30N 53°37' E 006°26'8710.3
2018-Feb-09 19:00N 55°04' E 006°37'10 9.5
2018-Feb-09 18:00N 55°14' E 006°39'19 9.7
2018-Feb-09 16:00N 55°32' E 006°50'184 8.4
2018-Feb-08 18:00N 57°48' E 010°36'611.5
2018-Feb-08 17:30N 57°48' E 010°46'612.7
2018-Feb-08 17:00N 57°44' E 010°56'713.1
2018-Feb-08 16:30N 57°40' E 011°05'713.4
2018-Feb-08 16:00N 57°35' E 011°14'713.3
2018-Feb-08 15:30N 57°30' E 011°22'2512.5
2018-Feb-08 13:30N 57°12' E 011°55'1212.0
2018-Feb-08 12:30N 57°05' E 012°12'  
Track history (hours):
 
Tides and Currents Weather Stations Pressure Air Temp Water Temp Dewpoint Dewpoint Depression Visibility Wind Speed Wind Dir Waves Ship Positions

Arife

Last reported at 2018-Feb-18 05:31 UTC. Time now 2018-Feb-18 05:33 UTC.
Position N 38°19' W 010°05'.

Length 101 m; draft 5.3 m.

Type: Cargo ship. MMSI: 371529000.

Date/timePositionNaut miles runAvg speedWind from/ knotsBaromVisibWave heightAir tempDewpointWater temp
2018-Feb-18 05:31N 38°19' W 010°05'611.9
2018-Feb-18 05:00N 38°25' W 010°07'363 8.0
2018-Feb-16 07:48N 43°46' W 006°22'5 8.8
2018-Feb-16 07:11N 43°47' W 006°15'2 8.9
2018-Feb-16 07:00N 43°47' W 006°12'5 9.1
2018-Feb-16 06:30N 43°47' W 006°06'4 9.0
2018-Feb-16 06:00N 43°47' W 006°00'5 8.9
2018-Feb-16 05:30N 43°47' W 005°54'4 8.8
2018-Feb-16 05:00N 43°46' W 005°48'5 8.9
2018-Feb-16 04:25N 43°45' W 005°41'4 8.7
2018-Feb-16 04:00N 43°45' W 005°36'6 8.7
2018-Feb-16 03:21N 43°44' W 005°28'5 8.9
2018-Feb-16 02:46N 43°43' W 005°21'69 5.0
2018-Feb-15 13:02N 43°34' W 003°46'374 9.0
2018-Feb-13 19:32N 49°48' W 003°26'1 9.8
2018-Feb-13 19:28N 49°48' W 003°25'4 9.4
2018-Feb-13 19:00N 49°51' W 003°19'7 8.0
2018-Feb-13 18:07N 49°54' W 003°10'1 7.5
2018-Feb-13 18:00N 49°54' W 003°08'4 7.3
2018-Feb-13 17:26N 49°55' W 003°02'3 6.9
2018-Feb-13 17:00N 49°57' W 002°58'4 6.7
2018-Feb-13 16:26N 49°58' W 002°53'3 7.5
2018-Feb-13 15:59N 49°59' W 002°48'5 7.9
2018-Feb-13 15:21N 50°00' W 002°40'3 8.6
2018-Feb-13 14:57N 50°01' W 002°35'6 9.2
2018-Feb-13 14:21N 50°02' W 002°27'410.0
2018-Feb-13 13:57N 50°02' W 002°20'510.5
2018-Feb-13 13:29N 50°02' W 002°13'611.7
2018-Feb-13 13:00N 50°00' W 002°04'612.5
2018-Feb-13 12:30N 49°59' W 001°55'713.0
2018-Feb-13 12:00N 49°57' W 001°45'714.0
2018-Feb-13 11:30N 49°55' W 001°35'714.2
2018-Feb-13 11:00N 49°53' W 001°24'714.1
2018-Feb-13 10:30N 49°51' W 001°14'713.4
2018-Feb-13 10:00N 49°48' W 001°04'713.6
2018-Feb-13 09:30N 49°42' W 000°59'713.3
2018-Feb-13 08:58N 49°36' W 000°53'612.8
2018-Feb-13 08:30N 49°31' W 000°49'1 0.1
2018-Feb-12 21:24N 49°30' W 000°48'0 0.0
2018-Feb-12 21:00N 49°30' W 000°48'0 0.0
2018-Feb-12 20:30N 49°30' W 000°48'0 0.0
2018-Feb-12 20:00N 49°30' W 000°48'0 0.1
2018-Feb-12 19:30N 49°30' W 000°48'0 0.1
2018-Feb-12 18:57N 49°30' W 000°48'0 0.0
2018-Feb-12 18:30N 49°30' W 000°48'0 0.0
2018-Feb-12 18:00N 49°30' W 000°48'0 0.0
2018-Feb-12 17:30N 49°30' W 000°48'0 0.0
2018-Feb-12 16:57N 49°30' W 000°48'0 0.0
2018-Feb-12 16:21N 49°30' W 000°48'0 0.0
2018-Feb-12 16:00N 49°30' W 000°48'0 0.1
2018-Feb-12 15:15N 49°30' W 000°48'0 0.2
2018-Feb-12 15:00N 49°30' W 000°48'0 0.1
2018-Feb-12 14:30N 49°30' W 000°48'0 0.3
2018-Feb-12 13:51N 49°30' W 000°48'0 0.0
2018-Feb-12 12:30N 49°30' W 000°48'0 0.0
2018-Feb-12 12:00N 49°30' W 000°48'0 0.0
2018-Feb-12 11:29N 49°30' W 000°48'1 1.3
2018-Feb-12 10:59N 49°31' W 000°49'1 2.9
2018-Feb-12 10:29N 49°32' W 000°48'5 8.7
2018-Feb-12 09:57N 49°37' W 000°48'511.2
2018-Feb-12 09:30N 49°42' W 000°46'611.3
2018-Feb-12 09:00N 49°47' W 000°45'610.6
2018-Feb-12 08:27N 49°53' W 000°44'27 7.8
2018-Feb-12 05:02N 50°14' W 000°18'0 7.7
2018-Feb-12 05:00N 50°15' W 000°18'4 8.7
2018-Feb-12 04:30N 50°18' W 000°14'5 9.3
2018-Feb-12 04:00N 50°22' W 000°10'5 9.5
2018-Feb-12 03:30N 50°25' W 000°05'510.1
2018-Feb-12 03:00N 50°29' E 000°00'510.1
2018-Feb-12 02:30N 50°31' E 000°08'610.3
2018-Feb-12 01:58N 50°33' E 000°16'510.5
2018-Feb-12 01:30N 50°34' E 000°24'510.5
2018-Feb-12 01:00N 50°35' E 000°32'510.4
2018-Feb-12 00:30N 50°37' E 000°39'611.7
2018-Feb-11 23:59N 50°41' E 000°47'1811.2
2018-Feb-11 22:25N 50°51' E 001°09'510.7
2018-Feb-11 22:00N 50°54' E 001°15'510.7
2018-Feb-11 21:30N 50°57' E 001°21'510.7
2018-Feb-11 21:00N 51°01' E 001°27'611.0
2018-Feb-11 20:30N 51°05' E 001°33'611.2
2018-Feb-11 20:00N 51°09' E 001°39'611.6
2018-Feb-11 19:30N 51°13' E 001°46'611.9
2018-Feb-11 19:00N 51°18' E 001°51'612.6
2018-Feb-11 18:31N 51°23' E 001°56'713.3
2018-Feb-11 18:00N 51°29' E 002°02'712.6
2018-Feb-11 17:28N 51°34' E 002°09'149 7.1
2018-Feb-10 20:30N 53°30' E 004°44'5 9.5
2018-Feb-10 20:00N 53°32' E 004°52'510.8
2018-Feb-10 19:30N 53°34' E 005°00'611.4
2018-Feb-10 19:00N 53°36' E 005°09'711.5
2018-Feb-10 18:25N 53°39' E 005°19'41 9.9
2018-Feb-10 14:15N 53°37' E 006°29'311.1
2018-Feb-10 14:00N 53°37' E 006°33'711.7
2018-Feb-10 13:22N 53°32' E 006°43'412.0
2018-Feb-10 13:00N 53°30' E 006°49'612.3
2018-Feb-10 12:30N 53°25' E 006°56'612.6
2018-Feb-10 12:00N 53°19' E 007°01'612.4
2018-Feb-10 11:30N 53°20' E 007°11'0 1.0
2018-Feb-10 10:59N 53°20' E 007°12'0 0.0
2018-Feb-10 10:23N 53°20' E 007°12'0 0.0
2018-Feb-10 09:59N 53°20' E 007°12'0 0.0
2018-Feb-10 09:29N 53°20' E 007°12'0 0.0
2018-Feb-10 09:00N 53°20' E 007°12'0 0.0
2018-Feb-10 08:30N 53°20' E 007°12'0 0.0
2018-Feb-10 08:00N 53°20' E 007°12'0 0.0
2018-Feb-10 07:30N 53°20' E 007°12'0 0.2
2018-Feb-10 07:00N 53°20' E 007°12'0 0.8
2018-Feb-10 06:30N 53°20' E 007°11'3 5.5
2018-Feb-10 06:00N 53°20' E 007°06'4 9.1
2018-Feb-10 05:30N 53°21' E 006°59'712.9
2018-Feb-10 05:00N 53°27' E 006°54'613.2
2018-Feb-10 04:30N 53°31' E 006°46'713.2
2018-Feb-10 03:59N 53°35' E 006°36'612.9
2018-Feb-10 03:30N 53°37' E 006°26'8710.3
2018-Feb-09 19:00N 55°04' E 006°37'10 9.5
2018-Feb-09 18:00N 55°14' E 006°39'19 9.7
2018-Feb-09 16:00N 55°32' E 006°50'184 8.4
2018-Feb-08 18:00N 57°48' E 010°36'611.5
2018-Feb-08 17:30N 57°48' E 010°46'612.7
2018-Feb-08 17:00N 57°44' E 010°56'713.1
2018-Feb-08 16:30N 57°40' E 011°05'713.4
2018-Feb-08 16:00N 57°35' E 011°14'713.3
2018-Feb-08 15:30N 57°30' E 011°22'2512.5
2018-Feb-08 13:30N 57°12' E 011°55'1212.0
2018-Feb-08 12:30N 57°05' E 012°12'  

Dump ship's entire track history